sensor_id;sensor_type;location;lat;lon;timestamp;temperature;humidity
814;DHT22;389;48.710;9.392;2023-11-19T00:02:19;9.60;99.90
814;DHT22;389;48.710;9.392;2023-11-19T00:04:44;9.60;99.90
814;DHT22;389;48.710;9.392;2023-11-19T00:07:10;9.60;99.90
814;DHT22;389;48.710;9.392;2023-11-19T00:09:37;9.60;99.90
814;DHT22;389;48.710;9.392;2023-11-19T00:12:04;9.60;99.90
814;DHT22;389;48.710;9.392;2023-11-19T00:14:30;9.60;99.90
814;DHT22;389;48.710;9.392;2023-11-19T00:16:56;9.60;99.90
814;DHT22;389;48.710;9.392;2023-11-19T00:19:21;9.60;99.90
814;DHT22;389;48.710;9.392;2023-11-19T00:21:47;9.70;99.90
814;DHT22;389;48.710;9.392;2023-11-19T00:24:13;9.70;99.90
814;DHT22;389;48.710;9.392;2023-11-19T00:26:41;9.70;99.90
814;DHT22;389;48.710;9.392;2023-11-19T00:29:07;9.70;99.90
814;DHT22;389;48.710;9.392;2023-11-19T00:31:33;9.70;99.90
814;DHT22;389;48.710;9.392;2023-11-19T00:33:58;9.80;99.90
814;DHT22;389;48.710;9.392;2023-11-19T00:36:24;9.80;99.90
814;DHT22;389;48.710;9.392;2023-11-19T00:38:51;9.80;99.90
814;DHT22;389;48.710;9.392;2023-11-19T00:41:18;9.80;99.90
814;DHT22;389;48.710;9.392;2023-11-19T00:43:44;10.00;99.90
814;DHT22;389;48.710;9.392;2023-11-19T00:46:09;9.80;99.90
814;DHT22;389;48.710;9.392;2023-11-19T00:48:36;9.80;99.90
814;DHT22;389;48.710;9.392;2023-11-19T00:51:02;9.90;99.90
814;DHT22;389;48.710;9.392;2023-11-19T00:53:29;9.90;99.90
814;DHT22;389;48.710;9.392;2023-11-19T00:55:55;9.90;99.90
814;DHT22;389;48.710;9.392;2023-11-19T00:58:20;9.90;99.90
814;DHT22;389;48.710;9.392;2023-11-19T01:00:46;9.90;99.90
814;DHT22;389;48.710;9.392;2023-11-19T01:03:12;9.90;99.90
814;DHT22;389;48.710;9.392;2023-11-19T01:05:38;10.00;99.90
814;DHT22;389;48.710;9.392;2023-11-19T01:08:03;9.90;99.90
814;DHT22;389;48.710;9.392;2023-11-19T01:10:30;9.90;99.90
814;DHT22;389;48.710;9.392;2023-11-19T01:12:56;9.90;99.90
814;DHT22;389;48.710;9.392;2023-11-19T01:15:22;9.90;99.90
814;DHT22;389;48.710;9.392;2023-11-19T01:17:48;10.00;99.90
814;DHT22;389;48.710;9.392;2023-11-19T01:20:14;10.00;99.90
814;DHT22;389;48.710;9.392;2023-11-19T01:22:40;10.00;99.90
814;DHT22;389;48.710;9.392;2023-11-19T01:25:06;10.00;99.90
814;DHT22;389;48.710;9.392;2023-11-19T01:27:32;10.10;99.90
814;DHT22;389;48.710;9.392;2023-11-19T01:30:00;10.10;99.90
814;DHT22;389;48.710;9.392;2023-11-19T01:32:29;10.10;99.90
814;DHT22;389;48.710;9.392;2023-11-19T01:34:54;10.10;99.90
814;DHT22;389;48.710;9.392;2023-11-19T01:37:20;10.10;99.90
814;DHT22;389;48.710;9.392;2023-11-19T01:39:46;10.10;99.90
814;DHT22;389;48.710;9.392;2023-11-19T01:42:11;10.20;99.90
814;DHT22;389;48.710;9.392;2023-11-19T01:44:40;10.20;99.90
814;DHT22;389;48.710;9.392;2023-11-19T01:47:06;10.30;99.90
814;DHT22;389;48.710;9.392;2023-11-19T01:49:32;10.30;99.90
814;DHT22;389;48.710;9.392;2023-11-19T01:51:59;10.30;99.90
814;DHT22;389;48.710;9.392;2023-11-19T01:54:25;10.30;99.90
814;DHT22;389;48.710;9.392;2023-11-19T01:56:52;10.30;99.90
814;DHT22;389;48.710;9.392;2023-11-19T01:59:21;10.30;99.90
814;DHT22;389;48.710;9.392;2023-11-19T02:01:52;10.30;99.90
814;DHT22;389;48.710;9.392;2023-11-19T02:04:18;10.30;99.90
814;DHT22;389;48.710;9.392;2023-11-19T02:06:45;10.40;99.90
814;DHT22;389;48.710;9.392;2023-11-19T02:09:13;10.50;99.90
814;DHT22;389;48.710;9.392;2023-11-19T02:11:42;10.40;99.90
814;DHT22;389;48.710;9.392;2023-11-19T02:14:08;10.40;99.90
814;DHT22;389;48.710;9.392;2023-11-19T02:16:33;10.40;99.90
814;DHT22;389;48.710;9.392;2023-11-19T02:18:59;10.40;99.90
814;DHT22;389;48.710;9.392;2023-11-19T02:21:25;10.40;99.90
814;DHT22;389;48.710;9.392;2023-11-19T02:23:51;10.40;99.90
814;DHT22;389;48.710;9.392;2023-11-19T02:26:26;10.40;99.90
814;DHT22;389;48.710;9.392;2023-11-19T02:28:53;10.40;99.90
814;DHT22;389;48.710;9.392;2023-11-19T02:31:19;10.50;99.90
814;DHT22;389;48.710;9.392;2023-11-19T02:33:45;10.50;99.90
814;DHT22;389;48.710;9.392;2023-11-19T02:36:11;10.50;99.90
814;DHT22;389;48.710;9.392;2023-11-19T02:38:36;10.50;99.90
814;DHT22;389;48.710;9.392;2023-11-19T02:41:06;10.30;99.90
814;DHT22;389;48.710;9.392;2023-11-19T02:43:33;10.60;99.90
814;DHT22;389;48.710;9.392;2023-11-19T02:49:20;10.60;99.90
814;DHT22;389;48.710;9.392;2023-11-19T02:51:46;10.60;99.90
814;DHT22;389;48.710;9.392;2023-11-19T02:54:11;10.60;99.90
814;DHT22;389;48.710;9.392;2023-11-19T02:56:41;10.60;99.90
814;DHT22;389;48.710;9.392;2023-11-19T02:59:07;10.60;99.90
814;DHT22;389;48.710;9.392;2023-11-19T03:01:40;10.70;99.90
814;DHT22;389;48.710;9.392;2023-11-19T03:04:09;10.70;99.90
814;DHT22;389;48.710;9.392;2023-11-19T03:06:37;10.70;99.90
814;DHT22;389;48.710;9.392;2023-11-19T03:09:03;10.80;99.90
814;DHT22;389;48.710;9.392;2023-11-19T03:11:33;10.70;99.90
814;DHT22;389;48.710;9.392;2023-11-19T03:13:59;10.70;99.90
814;DHT22;389;48.710;9.392;2023-11-19T03:16:24;10.70;99.90
814;DHT22;389;48.710;9.392;2023-11-19T03:18:50;10.70;99.90
814;DHT22;389;48.710;9.392;2023-11-19T03:21:15;10.80;99.90
814;DHT22;389;48.710;9.392;2023-11-19T03:23:41;10.70;99.90
814;DHT22;389;48.710;9.392;2023-11-19T03:26:07;10.90;99.90
814;DHT22;389;48.710;9.392;2023-11-19T03:28:33;10.70;99.90
814;DHT22;389;48.710;9.392;2023-11-19T03:30:59;10.80;99.90
814;DHT22;389;48.710;9.392;2023-11-19T03:33:24;10.80;99.90
814;DHT22;389;48.710;9.392;2023-11-19T03:35:53;10.80;99.90
814;DHT22;389;48.710;9.392;2023-11-19T03:38:18;11.00;99.90
814;DHT22;389;48.710;9.392;2023-11-19T03:40:44;10.80;99.90
814;DHT22;389;48.710;9.392;2023-11-19T03:43:09;10.90;99.90
814;DHT22;389;48.710;9.392;2023-11-19T03:45:35;10.90;99.90
814;DHT22;389;48.710;9.392;2023-11-19T03:48:01;10.90;99.90
814;DHT22;389;48.710;9.392;2023-11-19T03:50:27;10.90;99.90
814;DHT22;389;48.710;9.392;2023-11-19T03:52:52;11.10;99.90
814;DHT22;389;48.710;9.392;2023-11-19T03:55:18;10.90;99.90
814;DHT22;389;48.710;9.392;2023-11-19T03:57:43;10.90;99.90
814;DHT22;389;48.710;9.392;2023-11-19T04:00:09;10.90;99.90
814;DHT22;389;48.710;9.392;2023-11-19T04:02:38;11.00;99.90
814;DHT22;389;48.710;9.392;2023-11-19T04:05:04;11.00;99.90
814;DHT22;389;48.710;9.392;2023-11-19T04:07:30;11.00;99.90
814;DHT22;389;48.710;9.392;2023-11-19T04:09:57;11.00;99.90
814;DHT22;389;48.710;9.392;2023-11-19T04:12:22;11.10;99.90
814;DHT22;389;48.710;9.392;2023-11-19T04:14:48;11.10;99.90
814;DHT22;389;48.710;9.392;2023-11-19T04:17:13;11.10;99.90
814;DHT22;389;48.710;9.392;2023-11-19T04:19:39;11.10;99.90
814;DHT22;389;48.710;9.392;2023-11-19T04:22:07;11.10;99.90
814;DHT22;389;48.710;9.392;2023-11-19T04:24:34;11.20;99.90
814;DHT22;389;48.710;9.392;2023-11-19T04:27:00;11.30;99.90
814;DHT22;389;48.710;9.392;2023-11-19T04:29:25;11.20;99.90
814;DHT22;389;48.710;9.392;2023-11-19T04:31:51;11.20;99.90
814;DHT22;389;48.710;9.392;2023-11-19T04:34:16;11.20;99.90
814;DHT22;389;48.710;9.392;2023-11-19T04:36:43;11.20;99.90
814;DHT22;389;48.710;9.392;2023-11-19T04:39:09;11.20;99.90
814;DHT22;389;48.710;9.392;2023-11-19T04:41:46;11.30;99.90
814;DHT22;389;48.710;9.392;2023-11-19T04:44:13;11.30;99.90
814;DHT22;389;48.710;9.392;2023-11-19T04:46:38;11.30;99.90
814;DHT22;389;48.710;9.392;2023-11-19T04:49:04;11.30;99.90
814;DHT22;389;48.710;9.392;2023-11-19T04:51:30;11.40;99.90
814;DHT22;389;48.710;9.392;2023-11-19T04:53:55;11.40;99.90
814;DHT22;389;48.710;9.392;2023-11-19T04:56:21;11.40;99.90
814;DHT22;389;48.710;9.392;2023-11-19T04:58:48;11.50;99.90
814;DHT22;389;48.710;9.392;2023-11-19T05:01:14;11.50;99.90
814;DHT22;389;48.710;9.392;2023-11-19T05:03:43;11.50;99.90
814;DHT22;389;48.710;9.392;2023-11-19T05:06:09;11.60;99.90
814;DHT22;389;48.710;9.392;2023-11-19T05:08:35;11.60;99.90
814;DHT22;389;48.710;9.392;2023-11-19T05:11:01;11.70;99.90
814;DHT22;389;48.710;9.392;2023-11-19T05:13:26;11.60;99.90
814;DHT22;389;48.710;9.392;2023-11-19T05:15:52;11.60;99.90
814;DHT22;389;48.710;9.392;2023-11-19T05:18:17;11.70;99.90
814;DHT22;389;48.710;9.392;2023-11-19T05:20:44;11.70;99.90
814;DHT22;389;48.710;9.392;2023-11-19T05:23:10;11.80;99.90
814;DHT22;389;48.710;9.392;2023-11-19T05:25:36;11.80;99.90
814;DHT22;389;48.710;9.392;2023-11-19T05:28:02;11.90;99.90
814;DHT22;389;48.710;9.392;2023-11-19T05:30:27;12.00;99.90
814;DHT22;389;48.710;9.392;2023-11-19T05:32:53;11.90;99.90
814;DHT22;389;48.710;9.392;2023-11-19T05:35:18;11.90;99.90
814;DHT22;389;48.710;9.392;2023-11-19T05:37:44;12.10;99.90
814;DHT22;389;48.710;9.392;2023-11-19T05:40:10;12.00;99.90
814;DHT22;389;48.710;9.392;2023-11-19T05:42:41;12.00;99.90
814;DHT22;389;48.710;9.392;2023-11-19T05:45:07;12.10;99.90
814;DHT22;389;48.710;9.392;2023-11-19T05:47:33;12.10;99.90
814;DHT22;389;48.710;9.392;2023-11-19T05:49:59;12.10;99.90
814;DHT22;389;48.710;9.392;2023-11-19T05:52:24;12.20;99.90
814;DHT22;389;48.710;9.392;2023-11-19T05:54:50;12.30;99.90
814;DHT22;389;48.710;9.392;2023-11-19T05:57:17;12.20;99.90
814;DHT22;389;48.710;9.392;2023-11-19T05:59:49;12.20;99.90
814;DHT22;389;48.710;9.392;2023-11-19T06:02:15;12.30;99.90
814;DHT22;389;48.710;9.392;2023-11-19T06:04:40;12.20;99.90
814;DHT22;389;48.710;9.392;2023-11-19T06:07:09;12.30;99.90
814;DHT22;389;48.710;9.392;2023-11-19T06:09:35;12.20;99.90
814;DHT22;389;48.710;9.392;2023-11-19T06:12:00;12.20;99.90
814;DHT22;389;48.710;9.392;2023-11-19T06:14:27;12.30;99.90
814;DHT22;389;48.710;9.392;2023-11-19T06:16:53;12.30;99.90
814;DHT22;389;48.710;9.392;2023-11-19T06:19:18;12.40;99.90
814;DHT22;389;48.710;9.392;2023-11-19T06:21:44;12.40;99.90
814;DHT22;389;48.710;9.392;2023-11-19T06:24:09;12.50;99.90
814;DHT22;389;48.710;9.392;2023-11-19T06:26:35;12.40;99.90
814;DHT22;389;48.710;9.392;2023-11-19T06:29:01;12.40;99.90
814;DHT22;389;48.710;9.392;2023-11-19T06:31:26;12.50;99.90
814;DHT22;389;48.710;9.392;2023-11-19T06:33:52;12.50;99.90
814;DHT22;389;48.710;9.392;2023-11-19T06:36:17;12.50;99.90
814;DHT22;389;48.710;9.392;2023-11-19T06:38:43;12.60;99.90
814;DHT22;389;48.710;9.392;2023-11-19T06:41:09;12.60;99.90
814;DHT22;389;48.710;9.392;2023-11-19T06:43:36;12.60;99.90
814;DHT22;389;48.710;9.392;2023-11-19T06:46:02;12.70;99.90
814;DHT22;389;48.710;9.392;2023-11-19T06:48:27;12.70;99.90
814;DHT22;389;48.710;9.392;2023-11-19T06:50:53;12.70;99.90
814;DHT22;389;48.710;9.392;2023-11-19T06:53:19;12.70;99.90
814;DHT22;389;48.710;9.392;2023-11-19T06:55:44;12.70;99.90
814;DHT22;389;48.710;9.392;2023-11-19T06:58:10;12.80;99.90
814;DHT22;389;48.710;9.392;2023-11-19T07:00:35;12.90;99.90
814;DHT22;389;48.710;9.392;2023-11-19T07:03:01;12.90;99.90
814;DHT22;389;48.710;9.392;2023-11-19T07:05:27;12.80;99.90
814;DHT22;389;48.710;9.392;2023-11-19T07:07:53;12.80;99.90
814;DHT22;389;48.710;9.392;2023-11-19T07:10:20;12.80;99.90
814;DHT22;389;48.710;9.392;2023-11-19T07:12:45;12.80;99.90
814;DHT22;389;48.710;9.392;2023-11-19T07:15:11;12.90;99.90
814;DHT22;389;48.710;9.392;2023-11-19T07:17:38;12.80;99.90
814;DHT22;389;48.710;9.392;2023-11-19T07:20:05;12.90;99.90
814;DHT22;389;48.710;9.392;2023-11-19T07:22:31;12.90;99.90
814;DHT22;389;48.710;9.392;2023-11-19T07:24:57;13.00;99.90
814;DHT22;389;48.710;9.392;2023-11-19T07:27:22;13.00;99.90
814;DHT22;389;48.710;9.392;2023-11-19T07:29:49;13.10;99.90
814;DHT22;389;48.710;9.392;2023-11-19T07:32:15;13.00;99.90
814;DHT22;389;48.710;9.392;2023-11-19T07:34:40;13.10;99.90
814;DHT22;389;48.710;9.392;2023-11-19T07:37:06;13.00;99.90
814;DHT22;389;48.710;9.392;2023-11-19T07:39:32;13.10;99.90
814;DHT22;389;48.710;9.392;2023-11-19T07:41:58;13.10;99.90
814;DHT22;389;48.710;9.392;2023-11-19T07:44:23;13.10;99.90
814;DHT22;389;48.710;9.392;2023-11-19T07:46:50;13.20;99.90
814;DHT22;389;48.710;9.392;2023-11-19T07:49:15;13.10;99.90
814;DHT22;389;48.710;9.392;2023-11-19T07:51:41;13.10;99.90
814;DHT22;389;48.710;9.392;2023-11-19T07:54:07;13.20;99.90
814;DHT22;389;48.710;9.392;2023-11-19T07:56:33;13.30;99.90
814;DHT22;389;48.710;9.392;2023-11-19T07:59:01;13.20;99.90
814;DHT22;389;48.710;9.392;2023-11-19T08:01:26;13.30;99.90
814;DHT22;389;48.710;9.392;2023-11-19T08:03:52;13.30;99.90
814;DHT22;389;48.710;9.392;2023-11-19T08:06:18;13.30;99.90
814;DHT22;389;48.710;9.392;2023-11-19T08:08:43;13.40;99.90
814;DHT22;389;48.710;9.392;2023-11-19T08:11:10;13.40;99.90
814;DHT22;389;48.710;9.392;2023-11-19T08:13:35;13.40;99.90
814;DHT22;389;48.710;9.392;2023-11-19T08:16:01;13.40;99.90
814;DHT22;389;48.710;9.392;2023-11-19T08:18:27;13.50;99.90
814;DHT22;389;48.710;9.392;2023-11-19T08:20:53;13.60;99.90
814;DHT22;389;48.710;9.392;2023-11-19T08:23:20;13.60;99.90
814;DHT22;389;48.710;9.392;2023-11-19T08:25:46;13.60;99.90
814;DHT22;389;48.710;9.392;2023-11-19T08:28:11;13.70;99.90
814;DHT22;389;48.710;9.392;2023-11-19T08:30:37;13.80;99.90
814;DHT22;389;48.710;9.392;2023-11-19T08:33:02;13.80;99.90
814;DHT22;389;48.710;9.392;2023-11-19T08:35:29;13.90;99.90
814;DHT22;389;48.710;9.392;2023-11-19T08:37:55;14.00;99.90
814;DHT22;389;48.710;9.392;2023-11-19T08:40:20;14.10;99.90
814;DHT22;389;48.710;9.392;2023-11-19T08:42:46;14.00;99.90
814;DHT22;389;48.710;9.392;2023-11-19T08:45:12;14.10;99.90
814;DHT22;389;48.710;9.392;2023-11-19T08:50:06;14.30;99.90
814;DHT22;389;48.710;9.392;2023-11-19T08:52:31;14.40;99.90
814;DHT22;389;48.710;9.392;2023-11-19T08:54:57;14.50;99.90
814;DHT22;389;48.710;9.392;2023-11-19T08:57:22;14.60;99.90
814;DHT22;389;48.710;9.392;2023-11-19T08:59:48;14.70;99.90
814;DHT22;389;48.710;9.392;2023-11-19T09:02:14;14.70;99.90
814;DHT22;389;48.710;9.392;2023-11-19T09:04:39;14.70;99.90
814;DHT22;389;48.710;9.392;2023-11-19T09:07:06;14.80;99.90
814;DHT22;389;48.710;9.392;2023-11-19T09:09:32;14.90;99.90
814;DHT22;389;48.710;9.392;2023-11-19T09:12:01;14.90;99.90
814;DHT22;389;48.710;9.392;2023-11-19T09:14:26;14.90;99.90
814;DHT22;389;48.710;9.392;2023-11-19T09:16:52;15.00;99.90
814;DHT22;389;48.710;9.392;2023-11-19T09:19:18;15.00;99.90
814;DHT22;389;48.710;9.392;2023-11-19T09:21:44;15.20;99.90
814;DHT22;389;48.710;9.392;2023-11-19T09:24:09;15.30;99.90
814;DHT22;389;48.710;9.392;2023-11-19T09:26:35;15.50;99.90
814;DHT22;389;48.710;9.392;2023-11-19T09:29:01;15.60;99.90
814;DHT22;389;48.710;9.392;2023-11-19T09:31:27;15.70;99.90
814;DHT22;389;48.710;9.392;2023-11-19T09:33:53;15.80;99.90
814;DHT22;389;48.710;9.392;2023-11-19T09:36:18;15.90;99.90
814;DHT22;389;48.710;9.392;2023-11-19T09:38:44;15.90;99.90
814;DHT22;389;48.710;9.392;2023-11-19T09:41:10;15.90;99.90
814;DHT22;389;48.710;9.392;2023-11-19T09:43:42;15.90;99.90
814;DHT22;389;48.710;9.392;2023-11-19T09:46:13;15.90;99.90
814;DHT22;389;48.710;9.392;2023-11-19T09:48:40;15.90;99.90
814;DHT22;389;48.710;9.392;2023-11-19T09:51:08;15.90;99.90
814;DHT22;389;48.710;9.392;2023-11-19T09:53:35;15.90;99.90
814;DHT22;389;48.710;9.392;2023-11-19T09:56:02;15.90;99.90
814;DHT22;389;48.710;9.392;2023-11-19T09:58:31;16.00;99.90
814;DHT22;389;48.710;9.392;2023-11-19T10:00:57;16.20;99.90
814;DHT22;389;48.710;9.392;2023-11-19T10:03:26;16.20;99.90
814;DHT22;389;48.710;9.392;2023-11-19T10:05:53;16.30;99.90
814;DHT22;389;48.710;9.392;2023-11-19T10:08:20;16.40;99.90
814;DHT22;389;48.710;9.392;2023-11-19T10:10:45;16.40;99.90
814;DHT22;389;48.710;9.392;2023-11-19T10:13:11;16.50;99.90
814;DHT22;389;48.710;9.392;2023-11-19T10:15:37;16.60;99.90
814;DHT22;389;48.710;9.392;2023-11-19T10:18:03;16.60;99.90
814;DHT22;389;48.710;9.392;2023-11-19T10:20:40;16.70;99.90
814;DHT22;389;48.710;9.392;2023-11-19T10:23:06;16.90;99.90
814;DHT22;389;48.710;9.392;2023-11-19T10:25:32;17.00;99.90
814;DHT22;389;48.710;9.392;2023-11-19T10:27:58;17.20;99.70
814;DHT22;389;48.710;9.392;2023-11-19T10:30:26;17.30;99.80
814;DHT22;389;48.710;9.392;2023-11-19T10:33:11;17.40;99.40
814;DHT22;389;48.710;9.392;2023-11-19T10:35:55;17.70;99.50
814;DHT22;389;48.710;9.392;2023-11-19T10:38:27;17.80;98.80
814;DHT22;389;48.710;9.392;2023-11-19T10:40:53;17.80;98.60
814;DHT22;389;48.710;9.392;2023-11-19T10:43:20;17.80;98.40
814;DHT22;389;48.710;9.392;2023-11-19T10:45:49;17.90;98.40
814;DHT22;389;48.710;9.392;2023-11-19T10:48:15;17.90;98.30
814;DHT22;389;48.710;9.392;2023-11-19T10:50:43;17.80;98.30
814;DHT22;389;48.710;9.392;2023-11-19T10:53:11;17.90;98.30
814;DHT22;389;48.710;9.392;2023-11-19T10:55:38;17.90;98.10
814;DHT22;389;48.710;9.392;2023-11-19T10:58:06;17.90;98.10
814;DHT22;389;48.710;9.392;2023-11-19T11:00:47;17.90;98.00
814;DHT22;389;48.710;9.392;2023-11-19T11:03:20;18.00;98.00
814;DHT22;389;48.710;9.392;2023-11-19T11:05:47;18.00;97.70
814;DHT22;389;48.710;9.392;2023-11-19T11:08:13;18.00;97.70
814;DHT22;389;48.710;9.392;2023-11-19T11:10:59;18.10;97.70
814;DHT22;389;48.710;9.392;2023-11-19T11:13:26;18.30;97.50
814;DHT22;389;48.710;9.392;2023-11-19T11:15:56;18.30;97.40
814;DHT22;389;48.710;9.392;2023-11-19T11:18:23;18.40;97.30
814;DHT22;389;48.710;9.392;2023-11-19T11:21:03;18.40;97.10
814;DHT22;389;48.710;9.392;2023-11-19T11:29:00;18.50;96.50
814;DHT22;389;48.710;9.392;2023-11-19T11:39:46;18.30;95.90
814;DHT22;389;48.710;9.392;2023-11-19T11:50:18;18.50;95.70
814;DHT22;389;48.710;9.392;2023-11-19T11:55:28;18.50;95.00
814;DHT22;389;48.710;9.392;2023-11-19T11:57:57;18.40;94.50
814;DHT22;389;48.710;9.392;2023-11-19T12:00:28;18.40;94.70
814;DHT22;389;48.710;9.392;2023-11-19T12:03:01;18.40;94.50
814;DHT22;389;48.710;9.392;2023-11-19T12:05:28;18.40;94.50
814;DHT22;389;48.710;9.392;2023-11-19T12:07:55;18.40;94.60
814;DHT22;389;48.710;9.392;2023-11-19T12:10:21;18.40;94.30
814;DHT22;389;48.710;9.392;2023-11-19T12:12:47;18.50;94.50
814;DHT22;389;48.710;9.392;2023-11-19T12:15:13;18.60;94.60
814;DHT22;389;48.710;9.392;2023-11-19T12:17:50;18.60;94.50
814;DHT22;389;48.710;9.392;2023-11-19T12:20:17;18.70;94.30
814;DHT22;389;48.710;9.392;2023-11-19T12:22:45;18.70;94.20
814;DHT22;389;48.710;9.392;2023-11-19T12:25:12;18.70;94.10
814;DHT22;389;48.710;9.392;2023-11-19T12:27:44;18.70;93.90
814;DHT22;389;48.710;9.392;2023-11-19T12:40:44;18.30;93.10
814;DHT22;389;48.710;9.392;2023-11-19T12:43:27;18.30;93.20
814;DHT22;389;48.710;9.392;2023-11-19T12:59:59;18.20;92.60
814;DHT22;389;48.710;9.392;2023-11-19T13:02:59;18.30;92.40
814;DHT22;389;48.710;9.392;2023-11-19T13:08:00;18.40;92.40
814;DHT22;389;48.710;9.392;2023-11-19T13:10:55;18.40;92.10
814;DHT22;389;48.710;9.392;2023-11-19T13:16:42;18.50;92.30
814;DHT22;389;48.710;9.392;2023-11-19T13:22:53;18.50;92.10
814;DHT22;389;48.710;9.392;2023-11-19T13:25:27;18.50;92.00
814;DHT22;389;48.710;9.392;2023-11-19T13:27:54;18.30;91.30
814;DHT22;389;48.710;9.392;2023-11-19T13:30:38;18.30;91.50
814;DHT22;389;48.710;9.392;2023-11-19T13:33:32;18.20;91.60
814;DHT22;389;48.710;9.392;2023-11-19T13:36:01;18.20;92.20
814;DHT22;389;48.710;9.392;2023-11-19T13:38:36;18.10;91.90
814;DHT22;389;48.710;9.392;2023-11-19T13:41:25;18.10;91.60
814;DHT22;389;48.710;9.392;2023-11-19T13:44:03;18.20;91.70
814;DHT22;389;48.710;9.392;2023-11-19T13:46:49;18.20;91.80
814;DHT22;389;48.710;9.392;2023-11-19T13:49:41;18.20;91.80
814;DHT22;389;48.710;9.392;2023-11-19T13:52:15;18.20;91.50
814;DHT22;389;48.710;9.392;2023-11-19T13:54:41;18.10;90.90
814;DHT22;389;48.710;9.392;2023-11-19T13:57:06;18.00;90.70
814;DHT22;389;48.710;9.392;2023-11-19T13:59:32;18.00;90.70
814;DHT22;389;48.710;9.392;2023-11-19T14:02:00;17.90;91.00
814;DHT22;389;48.710;9.392;2023-11-19T14:04:25;17.90;91.20
814;DHT22;389;48.710;9.392;2023-11-19T14:06:51;17.80;90.50
814;DHT22;389;48.710;9.392;2023-11-19T14:09:17;17.70;90.60
814;DHT22;389;48.710;9.392;2023-11-19T14:11:43;17.50;90.80
814;DHT22;389;48.710;9.392;2023-11-19T14:14:09;17.50;90.50
814;DHT22;389;48.710;9.392;2023-11-19T14:16:35;17.20;90.60
814;DHT22;389;48.710;9.392;2023-11-19T14:19:01;17.20;91.00
814;DHT22;389;48.710;9.392;2023-11-19T14:21:26;17.00;90.70
814;DHT22;389;48.710;9.392;2023-11-19T14:23:52;16.90;90.90
814;DHT22;389;48.710;9.392;2023-11-19T14:26:18;16.90;91.10
814;DHT22;389;48.710;9.392;2023-11-19T14:28:44;16.90;91.50
814;DHT22;389;48.710;9.392;2023-11-19T14:31:09;16.90;91.40
814;DHT22;389;48.710;9.392;2023-11-19T14:33:35;16.90;91.40
814;DHT22;389;48.710;9.392;2023-11-19T14:36:01;17.00;91.70
814;DHT22;389;48.710;9.392;2023-11-19T14:38:27;17.00;91.80
814;DHT22;389;48.710;9.392;2023-11-19T14:40:53;17.10;91.90
814;DHT22;389;48.710;9.392;2023-11-19T14:43:20;17.10;91.90
814;DHT22;389;48.710;9.392;2023-11-19T14:45:45;17.10;91.70
814;DHT22;389;48.710;9.392;2023-11-19T14:48:11;17.10;91.70
814;DHT22;389;48.710;9.392;2023-11-19T14:50:36;17.20;91.70
814;DHT22;389;48.710;9.392;2023-11-19T14:53:02;17.00;91.70
814;DHT22;389;48.710;9.392;2023-11-19T14:55:28;16.90;91.80
814;DHT22;389;48.710;9.392;2023-11-19T14:57:54;16.80;91.80
814;DHT22;389;48.710;9.392;2023-11-19T15:00:20;16.70;91.90
814;DHT22;389;48.710;9.392;2023-11-19T15:02:46;16.50;91.90
814;DHT22;389;48.710;9.392;2023-11-19T15:05:12;16.50;92.10
814;DHT22;389;48.710;9.392;2023-11-19T15:07:38;16.30;92.20
814;DHT22;389;48.710;9.392;2023-11-19T15:10:06;16.20;92.20
814;DHT22;389;48.710;9.392;2023-11-19T15:12:39;16.00;92.20
814;DHT22;389;48.710;9.392;2023-11-19T15:15:08;15.90;92.30
814;DHT22;389;48.710;9.392;2023-11-19T15:17:35;15.70;92.40
814;DHT22;389;48.710;9.392;2023-11-19T15:20:03;15.60;92.60
814;DHT22;389;48.710;9.392;2023-11-19T15:22:29;15.60;92.80
814;DHT22;389;48.710;9.392;2023-11-19T15:24:54;15.40;92.70
814;DHT22;389;48.710;9.392;2023-11-19T15:27:20;15.30;92.70
814;DHT22;389;48.710;9.392;2023-11-19T15:29:46;15.20;92.80
814;DHT22;389;48.710;9.392;2023-11-19T15:32:11;15.10;92.80
814;DHT22;389;48.710;9.392;2023-11-19T15:34:37;15.10;92.80
814;DHT22;389;48.710;9.392;2023-11-19T15:37:05;14.90;92.80
814;DHT22;389;48.710;9.392;2023-11-19T15:39:30;14.90;92.80
814;DHT22;389;48.710;9.392;2023-11-19T15:41:57;14.80;92.90
814;DHT22;389;48.710;9.392;2023-11-19T15:44:24;14.70;92.90
814;DHT22;389;48.710;9.392;2023-11-19T15:46:50;14.70;93.00
814;DHT22;389;48.710;9.392;2023-11-19T15:49:16;14.60;93.00
814;DHT22;389;48.710;9.392;2023-11-19T15:51:42;14.50;93.10
814;DHT22;389;48.710;9.392;2023-11-19T15:54:07;14.50;93.40
814;DHT22;389;48.710;9.392;2023-11-19T15:56:33;14.40;93.40
814;DHT22;389;48.710;9.392;2023-11-19T15:58:59;14.20;93.30
814;DHT22;389;48.710;9.392;2023-11-19T16:01:24;14.30;93.40
814;DHT22;389;48.710;9.392;2023-11-19T16:03:50;14.20;93.50
814;DHT22;389;48.710;9.392;2023-11-19T16:06:17;14.00;93.60
814;DHT22;389;48.710;9.392;2023-11-19T16:08:43;13.90;93.60
814;DHT22;389;48.710;9.392;2023-11-19T16:11:09;14.00;93.70
814;DHT22;389;48.710;9.392;2023-11-19T16:13:35;13.90;93.80
814;DHT22;389;48.710;9.392;2023-11-19T16:16:01;13.80;94.00
814;DHT22;389;48.710;9.392;2023-11-19T16:18:26;13.70;94.10
814;DHT22;389;48.710;9.392;2023-11-19T16:20:54;13.70;94.20
814;DHT22;389;48.710;9.392;2023-11-19T16:23:20;13.60;94.40
814;DHT22;389;48.710;9.392;2023-11-19T16:25:45;13.50;94.60
814;DHT22;389;48.710;9.392;2023-11-19T16:28:11;13.40;94.80
814;DHT22;389;48.710;9.392;2023-11-19T16:30:36;13.30;95.00
814;DHT22;389;48.710;9.392;2023-11-19T16:33:02;13.20;95.00
814;DHT22;389;48.710;9.392;2023-11-19T16:35:29;13.20;95.30
814;DHT22;389;48.710;9.392;2023-11-19T16:37:54;13.00;95.50
814;DHT22;389;48.710;9.392;2023-11-19T16:40:20;12.90;95.60
814;DHT22;389;48.710;9.392;2023-11-19T16:42:46;12.90;95.70
814;DHT22;389;48.710;9.392;2023-11-19T16:45:12;12.80;95.60
814;DHT22;389;48.710;9.392;2023-11-19T16:47:37;12.70;95.70
814;DHT22;389;48.710;9.392;2023-11-19T16:50:04;12.60;95.70
814;DHT22;389;48.710;9.392;2023-11-19T16:52:30;12.60;96.00
814;DHT22;389;48.710;9.392;2023-11-19T16:54:57;12.60;96.10
814;DHT22;389;48.710;9.392;2023-11-19T16:57:23;12.40;96.30
814;DHT22;389;48.710;9.392;2023-11-19T16:59:49;12.50;96.50
814;DHT22;389;48.710;9.392;2023-11-19T17:02:23;12.30;96.40
814;DHT22;389;48.710;9.392;2023-11-19T17:04:50;12.20;96.60
814;DHT22;389;48.710;9.392;2023-11-19T17:07:16;12.20;96.90
814;DHT22;389;48.710;9.392;2023-11-19T17:09:42;12.20;96.90
814;DHT22;389;48.710;9.392;2023-11-19T17:12:08;12.10;96.90
814;DHT22;389;48.710;9.392;2023-11-19T17:14:34;12.00;96.90
814;DHT22;389;48.710;9.392;2023-11-19T17:17:00;12.00;97.20
814;DHT22;389;48.710;9.392;2023-11-19T17:19:26;11.90;97.30
814;DHT22;389;48.710;9.392;2023-11-19T17:21:52;11.80;97.40
814;DHT22;389;48.710;9.392;2023-11-19T17:24:18;11.70;97.60
814;DHT22;389;48.710;9.392;2023-11-19T17:26:43;11.60;97.70
814;DHT22;389;48.710;9.392;2023-11-19T17:29:09;11.50;98.00
814;DHT22;389;48.710;9.392;2023-11-19T17:31:36;11.40;98.70
814;DHT22;389;48.710;9.392;2023-11-19T17:34:02;11.40;98.90
814;DHT22;389;48.710;9.392;2023-11-19T17:36:28;11.40;99.00
814;DHT22;389;48.710;9.392;2023-11-19T17:38:53;11.30;99.10
814;DHT22;389;48.710;9.392;2023-11-19T17:41:19;11.30;99.20